createdAt,value
2017-04-12T00:00:08.027Z,83.22
2017-04-12T00:01:19.068Z,83.8
2017-04-12T00:02:30.356Z,83.13
2017-04-12T00:03:41.367Z,83.61
2017-04-12T00:04:52.379Z,83.89
2017-04-12T00:06:03.380Z,84.08
2017-04-12T00:07:14.387Z,84.08
2017-04-12T00:08:25.589Z,84.27
2017-04-12T00:09:36.600Z,84.08
2017-04-12T00:10:47.602Z,84.84
2017-04-12T00:11:58.599Z,84.42
2017-04-12T00:13:09.789Z,84.46
2017-04-12T00:14:21.037Z,83.98
2017-04-12T00:15:32.039Z,83.98
2017-04-12T00:16:43.044Z,84.27
2017-04-12T00:17:54.052Z,84.04
2017-04-12T00:19:05.051Z,84.08
2017-04-12T00:20:16.042Z,84.42
2017-04-12T00:21:27.032Z,84.61
2017-04-12T00:22:38.241Z,84.23
2017-04-12T00:23:49.292Z,84.52
2017-04-12T00:25:00.293Z,84.52
2017-04-12T00:26:11.286Z,84.42
2017-04-12T00:27:22.493Z,85.28
2017-04-12T00:28:33.488Z,84.52
2017-04-12T00:29:44.499Z,84.52
2017-04-12T00:30:55.702Z,83.94
2017-04-12T00:32:06.712Z,84.23
2017-04-12T00:33:17.723Z,84.04
2017-04-12T00:34:28.772Z,84.7
2017-04-12T00:35:39.771Z,84.99
2017-04-12T00:36:50.985Z,84.89
2017-04-12T00:38:01.979Z,85.66
2017-04-12T00:39:13.201Z,85.28
2017-04-12T00:40:24.207Z,85.08
2017-04-12T00:41:35.420Z,85.66
2017-04-12T00:42:47.036Z,85.75
2017-04-12T00:43:58.046Z,85.28
2017-04-12T00:45:09.049Z,84.99
2017-04-12T00:46:20.051Z,85.18
2017-04-12T00:47:31.047Z,85.94
2017-04-12T00:48:42.053Z,86.42
2017-04-12T00:49:53.063Z,85.66
2017-04-12T00:51:04.062Z,85.47
2017-04-12T00:52:15.075Z,85.94
2017-04-12T00:53:26.092Z,85.94
2017-04-12T00:54:37.094Z,85.75
2017-04-12T00:55:48.092Z,86.04
2017-04-12T00:56:59.149Z,86.99
2017-04-12T00:58:10.361Z,86.99
2017-04-12T00:59:21.376Z,86.99
2017-04-12T01:00:32.586Z,87.94
2017-04-12T01:01:43.586Z,87.94
2017-04-12T02:04:25.385Z,91.84
2017-04-12T02:05:36.416Z,91.13
2017-04-12T02:06:47.652Z,91.03
2017-04-12T02:07:58.672Z,91.7
2017-04-12T02:09:09.917Z,90.84
2017-04-12T02:10:21.347Z,91.61
2017-04-12T02:11:32.570Z,91.51
2017-04-12T02:12:43.600Z,91.99
2017-04-12T02:13:55.033Z,92.08
2017-04-12T02:15:06.088Z,92.18
2017-04-12T02:16:17.373Z,92.65
2017-04-12T02:17:28.607Z,91.89
2017-04-12T02:18:39.639Z,91.99
2017-04-12T02:19:50.667Z,92.94
2017-04-12T02:21:01.895Z,92.27
2017-04-12T02:22:12.918Z,92.18
2017-04-12T02:23:23.998Z,92.18
2017-04-12T02:24:35.027Z,92.08
2017-04-12T02:25:46.303Z,92.18
2017-04-12T02:26:57.331Z,92.18
2017-04-12T02:28:08.557Z,92.84
2017-04-12T02:29:19.585Z,93.13
2017-04-12T02:30:30.803Z,92.84
2017-04-12T02:31:41.834Z,93.23
2017-04-12T02:32:52.863Z,92.65
2017-04-12T02:34:03.905Z,93.13
2017-04-12T02:35:14.943Z,93.23
2017-04-12T02:36:26.217Z,92.65
2017-04-12T02:37:37.257Z,93.04
2017-04-12T02:38:48.490Z,93.6
2017-04-12T02:39:59.519Z,93.13
2017-04-12T02:41:10.535Z,92.84
2017-04-12T02:42:21.819Z,92.56
2017-04-12T02:43:33.054Z,92.65
2017-04-12T02:44:44.096Z,92.18
2017-04-12T02:45:55.136Z,92.65
2017-04-12T02:47:06.163Z,92.94
2017-04-12T02:48:17.194Z,93.32
2017-04-12T02:49:28.230Z,92.75
2017-04-12T02:50:39.247Z,93.32
2017-04-12T02:51:50.282Z,92.84
2017-04-12T02:53:01.301Z,93.13
2017-04-12T02:54:12.375Z,92.18
2017-04-12T02:55:23.406Z,92.27
2017-04-12T02:56:34.488Z,92.36
2017-04-12T02:57:45.517Z,91.7
2017-04-12T02:58:56.564Z,92.65
2017-04-12T03:00:07.589Z,92.65
2017-04-12T03:01:18.624Z,92.08
2017-04-12T03:02:29.652Z,92.56
2017-04-12T03:03:40.740Z,93.23
2017-04-12T03:04:51.768Z,92.75
2017-04-12T03:06:02.807Z,93.23
2017-04-12T03:07:13.850Z,92.65
2017-04-12T03:08:24.878Z,92.18
2017-04-12T03:09:35.907Z,92.65
2017-04-12T03:10:46.930Z,92.18
2017-04-12T03:11:58.156Z,92.27
2017-04-12T03:13:09.182Z,91.03
2017-04-12T03:14:20.473Z,91.51
2017-04-12T03:15:31.494Z,91.13
2017-04-12T03:16:42.515Z,90.47
2017-04-12T03:17:53.751Z,91.8
2017-04-12T03:19:05.180Z,91.8
2017-04-12T03:20:16.210Z,91.22
2017-04-12T03:21:27.244Z,91.42
2017-04-12T03:22:38.278Z,90.56
2017-04-12T03:23:49.307Z,90.37
2017-04-12T03:25:00.351Z,90.84
2017-04-12T03:26:11.422Z,91.42
2017-04-12T03:27:22.452Z,91.51
2017-04-12T03:28:33.487Z,91.32
2017-04-12T03:29:44.532Z,92.18
2017-04-12T03:30:55.559Z,91.32
2017-04-12T03:32:06.581Z,91.7
2017-04-12T03:33:17.613Z,91.51
2017-04-12T03:34:28.647Z,91.99
2017-04-12T03:35:39.672Z,92.27
2017-04-12T03:36:50.702Z,92.18
2017-04-12T03:38:01.749Z,92.84
2017-04-12T03:39:12.778Z,92.56
2017-04-12T03:40:24.301Z,92.75
2017-04-12T03:41:35.548Z,91.22
2017-04-12T03:42:46.593Z,92.36
2017-04-12T03:43:57.629Z,92.84
2017-04-12T03:45:09.056Z,91.22
2017-04-12T03:46:20.083Z,92.36
2017-04-12T03:47:31.124Z,92.94
2017-04-12T03:48:42.148Z,91.42
2017-04-12T03:49:53.183Z,91.03
2017-04-12T03:51:04.272Z,91.32
2017-04-12T03:52:15.295Z,91.89
2017-04-12T03:53:26.537Z,91.61
2017-04-12T03:54:37.776Z,92.36
2017-04-12T03:55:48.803Z,92.94
2017-04-12T03:56:59.835Z,92.94
2017-04-12T03:58:11.072Z,91.99
2017-04-12T03:59:22.095Z,92.75
2017-04-12T04:00:33.134Z,93.6
2017-04-12T04:01:44.216Z,93.7
2017-04-12T04:02:55.649Z,93.89
2017-04-12T04:04:06.678Z,93.6
2017-04-12T04:05:17.708Z,93.51
2017-04-12T04:06:28.927Z,93.32
2017-04-12T04:07:39.965Z,93.04
2017-04-12T04:08:51.201Z,92.18
2017-04-12T04:10:02.236Z,93.32
2017-04-12T04:11:13.308Z,92.84
2017-04-12T04:12:24.330Z,92.56
2017-04-12T04:13:35.371Z,94.37
2017-04-12T04:14:46.380Z,94.27
2017-04-12T04:15:57.427Z,93.89
2017-04-12T04:17:08.457Z,94.27
2017-04-12T04:18:19.479Z,93.23
2017-04-12T04:19:30.960Z,94.56
2017-04-12T04:20:41.993Z,94.56
2017-04-12T04:21:53.042Z,94.93
2017-04-12T04:23:04.075Z,94.93
2017-04-12T04:24:15.360Z,94.93
2017-04-12T04:25:26.398Z,94.56
2017-04-12T04:26:37.641Z,93.7
2017-04-12T04:27:48.887Z,94.84
2017-04-12T04:29:00.161Z,94.93
2017-04-12T04:30:11.389Z,95.7
2017-04-12T04:31:22.417Z,95.51
2017-04-12T04:32:33.435Z,95.41
2017-04-12T04:33:44.470Z,95.51
2017-04-12T04:34:55.698Z,96.26
2017-04-12T04:36:06.724Z,95.41
2017-04-12T04:37:17.946Z,96.26
2017-04-12T04:38:29.178Z,96.55
2017-04-12T04:39:40.262Z,95.89
2017-04-12T04:40:51.291Z,96.08
2017-04-12T04:42:02.528Z,95.41
2017-04-12T04:43:13.554Z,95.51
2017-04-12T04:44:24.581Z,95.12
2017-04-12T04:45:35.623Z,96.46
2017-04-12T04:46:46.655Z,96.17
2017-04-12T04:47:57.683Z,96.08
2017-04-12T04:49:08.929Z,96.74
2017-04-12T04:50:19.953Z,96.74
2017-04-12T04:51:31.176Z,97.22
2017-04-12T04:52:42.201Z,96.55
2017-04-12T04:53:53.431Z,96.74
2017-04-12T04:55:04.461Z,97.31
2017-04-12T04:56:15.745Z,97.98
2017-04-12T04:57:26.767Z,97.5
2017-04-12T04:58:37.999Z,97.31
2017-04-12T04:59:49.239Z,96.84
2017-04-12T05:01:00.265Z,96.94
2017-04-12T05:02:11.297Z,98.36
2017-04-12T05:03:22.536Z,97.79
2017-04-12T05:04:33.568Z,98.27
2017-04-12T05:05:45.051Z,98.27
2017-04-12T05:06:56.117Z,96.17
2017-04-12T05:08:07.337Z,97.69
2017-04-12T05:09:18.365Z,97.5
2017-04-12T05:10:29.391Z,98.17
2017-04-12T05:11:40.613Z,98.36
2017-04-12T05:12:51.646Z,97.13
2017-04-12T05:14:02.685Z,97.03
2017-04-12T05:15:13.714Z,97.22
2017-04-12T05:16:25.197Z,97.41
2017-04-12T05:17:36.216Z,97.31
2017-04-12T05:18:47.442Z,98.08
2017-04-12T05:19:58.670Z,97.13
2017-04-12T05:21:09.704Z,98.08
2017-04-12T05:22:20.730Z,97.41
2017-04-12T05:23:31.967Z,98.36
2017-04-12T05:24:42.995Z,96.94
2017-04-12T05:25:54.233Z,97.69
2017-04-12T05:27:05.257Z,96.94
2017-04-12T05:28:16.293Z,97.79
2017-04-12T05:29:27.328Z,97.69
2017-04-12T05:30:38.358Z,98.27
2017-04-12T05:31:49.391Z,98.65
2017-04-12T05:33:00.473Z,98.17
2017-04-12T05:34:11.486Z,98.27
2017-04-12T05:35:22.525Z,97.69
2017-04-12T05:36:33.772Z,98.08
2017-04-12T05:37:44.988Z,97.41
2017-04-12T05:38:56.029Z,99.12
2017-04-12T05:40:07.059Z,99.12
2017-04-12T05:41:18.087Z,99.6
2017-04-12T05:42:29.109Z,99.22
2017-04-12T05:43:40.207Z,98.27
2017-04-12T05:44:51.229Z,97.69
2017-04-12T05:46:02.299Z,98.55
2017-04-12T05:47:13.328Z,99.02
2017-04-12T05:48:24.562Z,99.6
2017-04-12T05:49:35.640Z,98.08
2017-04-12T05:50:46.673Z,98.36
2017-04-12T05:51:57.708Z,97.6
2017-04-12T05:53:08.727Z,99.02
2017-04-12T05:54:19.811Z,98.65
2017-04-12T05:55:31.042Z,98.74
2017-04-12T05:56:42.274Z,99.02
2017-04-12T05:57:53.311Z,99.5
2017-04-12T05:59:04.341Z,98.08
2017-04-12T06:00:15.381Z,97.31
2017-04-12T06:01:26.608Z,98.08
2017-04-12T06:02:37.636Z,96.55
2017-04-12T06:03:48.668Z,96.89
2017-04-12T06:04:59.694Z,96.89
2017-04-12T06:06:10.726Z,96.12
2017-04-12T06:07:21.768Z,96.22
2017-04-12T06:08:32.799Z,95.56
2017-04-12T06:09:44.033Z,97.27
2017-04-12T06:10:55.104Z,98.22
2017-04-12T06:12:06.335Z,98.5
2017-04-12T06:13:17.562Z,98.32
2017-04-12T06:14:28.600Z,97.17
2017-04-12T06:15:39.632Z,97.36
2017-04-12T06:16:50.664Z,98.88
2017-04-12T06:18:01.691Z,98.69
2017-04-12T06:19:12.712Z,98.98
2017-04-12T06:20:23.798Z,97.74
2017-04-12T06:21:35.023Z,97.74
2017-04-12T06:22:46.043Z,97.08
2017-04-12T06:23:57.072Z,95.46
2017-04-12T06:25:08.115Z,96.12
2017-04-12T06:26:19.151Z,94.98
2017-04-12T06:27:30.174Z,96.27
2017-04-12T06:28:41.198Z,96.84
2017-04-12T06:29:52.235Z,96.36
2017-04-12T06:31:03.320Z,96.36
2017-04-12T06:32:14.345Z,95.51
2017-04-12T06:33:25.386Z,96.17
2017-04-12T06:34:36.417Z,96.75
2017-04-12T06:35:47.452Z,97.03
2017-04-12T06:36:58.538Z,96.27
2017-04-12T06:38:09.566Z,96.94
2017-04-12T06:39:20.614Z,96.17
2017-04-12T06:40:31.651Z,97.51
2017-04-12T06:41:42.882Z,97.13
2017-04-12T06:42:53.915Z,96.75
2017-04-12T06:44:05.549Z,97.31
2017-04-12T06:45:16.576Z,95.89
2017-04-12T06:46:27.595Z,95.98
2017-04-12T06:47:38.626Z,95.22
2017-04-12T06:48:49.664Z,96.55
2017-04-12T06:50:00.704Z,97.03
2017-04-12T06:51:11.736Z,97.6
2017-04-12T06:52:23.016Z,97.03
2017-04-12T06:53:34.069Z,94.93
2017-04-12T06:54:45.099Z,96.94
2017-04-12T06:55:56.329Z,98.46
2017-04-12T06:57:07.362Z,97.7
2017-04-12T06:58:18.386Z,97.13
2017-04-12T06:59:29.619Z,96.94
2017-04-12T07:00:40.647Z,96.75
2017-04-12T07:01:51.683Z,96.65
2017-04-12T07:03:02.767Z,95.22
2017-04-12T07:04:13.807Z,94.89
2017-04-12T07:05:24.837Z,93.74
2017-04-12T07:06:35.881Z,94.6
2017-04-12T07:07:46.914Z,94.7
2017-04-12T07:08:57.941Z,93.93
2017-04-12T07:10:09.034Z,93.84
2017-04-12T07:11:20.062Z,94.03
2017-04-12T07:12:31.088Z,95.08
2017-04-12T07:13:42.174Z,94.98
2017-04-12T07:14:53.208Z,94.6
2017-04-12T07:16:04.435Z,93.27
2017-04-12T07:17:15.656Z,92.98
2017-04-12T07:18:26.688Z,93.79
2017-04-12T07:19:38.178Z,92.65
2017-04-12T07:20:49.207Z,93.41
2017-04-12T07:22:00.286Z,93.79
2017-04-12T07:23:11.307Z,91.88
2017-04-12T07:24:22.340Z,93.12
2017-04-12T07:25:33.357Z,94.08
2017-04-12T07:26:44.598Z,93.98
2017-04-12T07:27:55.653Z,95.41
2017-04-12T07:29:06.687Z,96.98
2017-04-12T07:30:17.912Z,95.94
2017-04-12T07:31:29.004Z,96.51
2017-04-12T07:32:40.037Z,95.56
2017-04-12T07:33:51.066Z,95.46
2017-04-12T07:35:02.125Z,94.79
2017-04-12T07:36:13.155Z,94.79
2017-04-12T07:37:24.181Z,93.74
2017-04-12T07:38:35.411Z,95.08
2017-04-12T07:39:46.448Z,95.08
2017-04-12T07:40:57.523Z,95.17
2017-04-12T07:42:08.756Z,94.98
2017-04-12T07:43:19.975Z,94.7
2017-04-12T07:44:30.996Z,95.17
2017-04-12T07:45:42.051Z,94.08
2017-04-12T07:46:53.072Z,96.6
2017-04-12T07:48:04.310Z,95.17
2017-04-12T07:49:15.345Z,96.32
2017-04-12T07:50:26.380Z,96.8
2017-04-12T07:51:37.864Z,96.03
2017-04-12T07:52:49.101Z,96.8
2017-04-12T07:54:00.138Z,97.46
2017-04-12T07:55:11.166Z,98.03
2017-04-12T07:56:22.184Z,99.18
2017-04-12T07:57:33.632Z,98.51
2017-04-12T07:58:44.666Z,99.08
2017-04-12T07:59:55.917Z,98.22
2017-04-12T08:01:06.945Z,97.75
2017-04-12T08:02:17.975Z,98.13
2017-04-12T08:03:28.999Z,97.56
2017-04-12T08:04:40.029Z,97.84
2017-04-12T08:05:51.263Z,98.6
2017-04-12T08:07:02.327Z,98.6
2017-04-12T08:08:13.346Z,98.6
2017-04-12T08:09:24.370Z,97.32
2017-04-12T08:10:35.396Z,97.75
2017-04-12T08:11:46.413Z,98.18
2017-04-12T08:12:57.485Z,96.94
2017-04-12T08:14:08.517Z,96.75
2017-04-12T08:15:19.540Z,97.03
2017-04-12T08:16:30.565Z,96.65
2017-04-12T08:17:41.791Z,96.36
2017-04-12T08:18:52.821Z,95.41
2017-04-12T08:20:04.046Z,95.08
2017-04-12T08:21:15.279Z,95.65
2017-04-12T08:22:26.304Z,94.03
2017-04-12T08:23:37.592Z,92.32
2017-04-12T08:24:48.623Z,93.65
2017-04-12T08:25:59.642Z,93.65
2017-04-12T08:27:10.675Z,95.17
2017-04-12T08:28:22.359Z,95.37
2017-04-12T08:29:33.385Z,95.94
2017-04-12T08:30:44.421Z,96.41
2017-04-12T08:31:55.659Z,95.75
2017-04-12T08:33:06.884Z,96.8
2017-04-12T08:34:18.368Z,94.98
2017-04-12T08:35:29.402Z,95.08
2017-04-12T08:36:40.433Z,95.84
2017-04-12T08:37:51.467Z,95.46
2017-04-12T08:39:02.493Z,94.98
2017-04-12T08:40:13.517Z,93.93
2017-04-12T08:41:24.548Z,93.93
2017-04-12T08:42:35.577Z,93.93
2017-04-12T08:43:46.815Z,93.84
2017-04-12T08:44:57.844Z,93.17
2017-04-12T08:46:08.863Z,94.03
2017-04-12T08:47:19.890Z,93.46
2017-04-12T08:48:30.927Z,93.55
2017-04-12T08:49:42.011Z,93.08
2017-04-12T08:50:53.057Z,92.79
2017-04-12T08:52:04.085Z,92.41
2017-04-12T08:53:15.115Z,93.84
2017-04-12T08:54:26.147Z,93.93
2017-04-12T08:55:37.181Z,94.12
2017-04-12T08:56:48.605Z,94.03
2017-04-12T08:57:59.638Z,93.84
2017-04-12T08:59:10.876Z,94.6
2017-04-12T09:00:22.096Z,95.75
2017-04-12T09:01:33.121Z,94.98
2017-04-12T09:02:44.143Z,93.46
2017-04-12T09:03:55.378Z,94.22
2017-04-12T09:05:06.666Z,93.93
2017-04-12T09:06:17.895Z,93.65
2017-04-12T09:07:28.939Z,93.17
2017-04-12T09:08:39.973Z,92.74
2017-04-12T09:09:51.016Z,92.46
2017-04-12T09:11:02.044Z,91.5
2017-04-12T09:12:13.077Z,91.12
2017-04-12T09:13:24.108Z,89.54
2017-04-12T09:14:35.143Z,87.35
2017-04-12T09:15:46.174Z,86.63
2017-04-12T09:16:57.404Z,85.96
2017-04-12T09:18:08.633Z,84.95
2017-04-12T09:19:19.662Z,83.9
2017-04-12T09:20:30.725Z,82.6
2017-04-12T09:21:41.763Z,82.41
2017-04-12T09:22:52.801Z,82.03
2017-04-12T09:24:03.845Z,82.98
2017-04-12T09:25:14.883Z,83.37
2017-04-12T09:26:25.928Z,83.7
2017-04-12T09:27:36.974Z,82.46
2017-04-12T09:28:48.010Z,82.94
2017-04-12T09:29:59.050Z,82.7
2017-04-12T09:31:10.076Z,82.6
2017-04-12T09:32:21.115Z,82.03
2017-04-12T09:33:32.147Z,82.51
2017-04-12T09:34:43.249Z,81.74
2017-04-12T09:35:54.281Z,81.55
2017-04-12T09:37:05.522Z,80.69
2017-04-12T09:38:16.567Z,81.65
2017-04-12T09:39:27.613Z,81.74
2017-04-12T09:40:38.654Z,81.36
2017-04-12T09:41:49.701Z,81.55
2017-04-12T09:43:00.725Z,82.18
2017-04-12T09:44:11.958Z,81.6
2017-04-12T09:45:23.192Z,82.65
2017-04-12T09:46:34.286Z,82.75
2017-04-12T09:47:45.320Z,83.23
2017-04-12T09:48:56.585Z,83.04
2017-04-12T09:50:07.627Z,82.37
2017-04-12T09:51:18.678Z,81.7
2017-04-12T09:52:30.109Z,80.74
2017-04-12T09:53:41.143Z,80.4
2017-04-12T09:54:52.192Z,80.21
2017-04-12T09:56:03.230Z,79.25
2017-04-12T09:57:14.479Z,78.68
2017-04-12T09:58:25.509Z,78.87
2017-04-12T09:59:36.749Z,79.35
2017-04-12T10:00:47.786Z,79.16
2017-04-12T10:01:58.828Z,79.35
2017-04-12T10:03:09.868Z,78.68
2017-04-12T10:04:20.909Z,78.58
2017-04-12T10:05:32.341Z,77.82
2017-04-12T10:06:43.393Z,77.67
2017-04-12T10:07:54.442Z,77.95
2017-04-12T10:09:05.687Z,77.86
2017-04-12T10:10:16.723Z,78.05
2017-04-12T10:11:27.757Z,76.81
2017-04-12T10:12:38.793Z,76.9
2017-04-12T10:13:49.827Z,77.72
2017-04-12T10:15:00.865Z,78.2
2017-04-12T10:16:11.925Z,78.39
2017-04-12T10:17:22.962Z,78.11
2017-04-12T10:18:34.042Z,78.49
2017-04-12T10:19:45.086Z,78.78
2017-04-12T10:20:56.116Z,79.6
2017-04-12T10:22:07.357Z,80.17
2017-04-12T10:23:18.598Z,80.84
2017-04-12T10:24:29.634Z,80.65
2017-04-12T10:25:40.670Z,81.79
2017-04-12T10:26:51.696Z,81.79
2017-04-12T10:28:02.983Z,81.51
2017-04-12T10:29:14.211Z,82.08
2017-04-12T10:30:25.249Z,82.37
2017-04-12T10:31:36.275Z,82.18
2017-04-12T10:32:47.304Z,81.7
2017-04-12T10:33:58.334Z,82.08
2017-04-12T10:35:09.368Z,81.13
2017-04-12T10:36:20.389Z,79.98
2017-04-12T10:37:31.420Z,79.5
2017-04-12T10:38:42.662Z,77.72
2017-04-12T10:39:53.700Z,76.86
2017-04-12T10:41:04.739Z,77.34
2017-04-12T10:42:15.777Z,77.44
2017-04-12T10:43:26.809Z,77.86
2017-04-12T10:44:37.835Z,77.19
2017-04-12T10:45:49.081Z,77.72
2017-04-12T10:47:00.106Z,77.76
2017-04-12T10:48:11.348Z,77.76
2017-04-12T10:49:22.574Z,77.63
2017-04-12T10:50:33.599Z,78.2
2017-04-12T10:51:44.631Z,78.3
2017-04-12T10:52:55.862Z,78.39
2017-04-12T10:54:06.948Z,78.49
2017-04-12T10:55:17.981Z,78.36
2017-04-12T10:56:29.008Z,79.12
2017-04-12T10:57:40.031Z,79.79
2017-04-12T10:58:51.303Z,79.22
2017-04-12T11:00:02.338Z,79.02
2017-04-12T11:01:13.378Z,79.5
2017-04-12T11:02:24.410Z,78.26
2017-04-12T11:03:35.436Z,78.36
2017-04-12T11:04:46.508Z,78.26
2017-04-12T11:05:57.538Z,78.16
2017-04-12T11:07:08.579Z,79.36
2017-04-12T11:08:19.806Z,79.65
2017-04-12T11:09:30.832Z,80.41
2017-04-12T11:10:41.856Z,80.7
2017-04-12T11:11:52.895Z,80.99
2017-04-12T11:13:03.935Z,80.7
2017-04-12T11:14:14.970Z,81.27
2017-04-12T11:15:26.049Z,81.27
2017-04-12T11:16:37.088Z,81.47
2017-04-12T11:17:48.324Z,80.9
2017-04-12T11:18:59.354Z,81.85
2017-04-12T11:20:10.392Z,81.56
2017-04-12T11:21:21.634Z,82.61
2017-04-12T11:22:32.658Z,82.9
2017-04-12T11:23:43.700Z,82.42
2017-04-12T11:24:54.942Z,82.9
2017-04-12T11:26:06.189Z,83.38
2017-04-12T11:27:17.447Z,83.28
2017-04-12T11:28:28.520Z,83.09
2017-04-12T11:29:39.763Z,83
2017-04-12T11:30:50.791Z,83
2017-04-12T11:32:01.819Z,83
2017-04-12T11:33:12.847Z,82.81
2017-04-12T11:34:23.873Z,83.18
2017-04-12T11:35:34.913Z,83.09
2017-04-12T11:36:46.350Z,83.47
2017-04-12T11:37:57.389Z,83.67
2017-04-12T11:39:08.467Z,83.86
2017-04-12T11:40:19.774Z,83.76
2017-04-12T11:41:30.791Z,84.14
2017-04-12T11:42:42.020Z,83.67
2017-04-12T11:43:53.061Z,84.33
2017-04-12T11:45:04.092Z,85.15
2017-04-12T11:46:15.122Z,85.72
2017-04-12T11:47:26.162Z,87.82
2017-04-12T11:48:37.233Z,88.78
2017-04-12T11:49:48.466Z,90.5
2017-04-12T11:50:59.499Z,90.78
2017-04-12T11:52:10.569Z,90.5
2017-04-12T11:53:21.609Z,90.88
2017-04-12T11:54:32.640Z,91.74
2017-04-12T11:55:43.765Z,92.5
2017-04-12T11:56:54.799Z,93.36
2017-04-12T11:58:05.823Z,93.26
2017-04-12T11:59:17.052Z,93.17
2017-04-12T12:00:28.082Z,94.03
2017-04-12T12:01:39.121Z,94.22
2017-04-12T12:02:50.136Z,94.41
2017-04-12T12:04:01.159Z,95.08
2017-04-12T12:05:12.191Z,94.89
2017-04-12T12:06:23.245Z,94.65
2017-04-12T12:07:34.271Z,95.41
2017-04-12T12:08:45.284Z,96.37
2017-04-12T12:09:56.318Z,97.22
2017-04-12T12:11:07.552Z,97.27
2017-04-12T12:12:18.604Z,97.71
2017-04-12T12:13:29.627Z,98.27
2017-04-12T12:14:40.855Z,98.51
2017-04-12T12:15:51.883Z,98.9
2017-04-12T12:17:02.929Z,99.37
2017-04-12T12:18:13.960Z,99.95
2017-04-12T12:19:25.193Z,99.99
2017-04-12T12:20:36.222Z,99.99
2017-04-12T12:21:47.706Z,99.99
2017-04-12T12:22:58.739Z,99.99
2017-04-12T12:24:09.770Z,99.99
2017-04-12T12:25:20.804Z,99.99
2017-04-12T12:26:31.845Z,99.99
2017-04-12T12:27:42.865Z,99.99
2017-04-12T12:28:53.885Z,99.99
2017-04-12T12:30:04.928Z,99.99
2017-04-12T12:31:15.953Z,99.99
2017-04-12T12:32:26.975Z,99.99
2017-04-12T12:33:37.999Z,99.99
2017-04-12T12:34:49.225Z,99.99
2017-04-12T12:36:00.452Z,99.99
2017-04-12T12:37:11.539Z,99.99
2017-04-12T12:38:22.566Z,99.99
2017-04-12T12:39:33.598Z,99.99
2017-04-12T12:40:44.627Z,99.99
2017-04-12T12:41:55.677Z,99.99
2017-04-12T12:43:08.234Z,99.99
2017-04-12T12:44:19.323Z,99.99
2017-04-12T12:45:30.356Z,99.99
2017-04-12T12:46:41.379Z,99.99
2017-04-12T12:47:52.420Z,99.99
2017-04-12T12:49:03.479Z,99.99
2017-04-12T12:50:14.512Z,99.99
2017-04-12T12:51:25.544Z,99.99
2017-04-12T12:52:36.772Z,99.99
2017-04-12T12:53:47.801Z,99.99
2017-04-12T12:54:58.816Z,99.99
2017-04-12T12:56:10.048Z,99.99
2017-04-12T12:57:21.277Z,99.99
2017-04-12T12:58:32.513Z,99.99
2017-04-12T12:59:43.537Z,99.99
2017-04-12T13:00:54.763Z,99.99
2017-04-12T13:02:05.792Z,99.99
2017-04-12T13:03:16.811Z,99.99
2017-04-12T13:04:27.842Z,99.99
2017-04-12T13:05:39.064Z,99.99
2017-04-12T13:06:50.090Z,99.99
2017-04-12T13:08:01.531Z,99.99
2017-04-12T13:09:12.570Z,99.99
2017-04-12T13:10:23.595Z,99.99
2017-04-12T13:11:34.618Z,99.99
2017-04-12T13:12:45.646Z,99.99
2017-04-12T13:13:56.672Z,99.99
2017-04-12T13:15:08.094Z,99.99
2017-04-12T13:16:19.124Z,99.99
2017-04-12T13:17:30.160Z,99.99
2017-04-12T13:18:41.430Z,99.99
2017-04-12T13:19:52.463Z,99.99
2017-04-12T13:21:03.482Z,99.99
2017-04-12T13:22:14.497Z,99.99
2017-04-12T13:23:25.525Z,99.99
2017-04-12T13:24:36.557Z,99.99
2017-04-12T13:25:47.584Z,99.99
2017-04-12T13:26:58.625Z,99.99
2017-04-12T13:28:09.903Z,99.99
2017-04-12T13:29:21.136Z,99.99
2017-04-12T13:30:32.373Z,99.99
2017-04-12T13:31:43.405Z,99.99
2017-04-12T13:32:54.433Z,99.99
2017-04-12T13:34:05.460Z,99.99
2017-04-12T13:35:16.534Z,99.99
2017-04-12T13:36:27.754Z,99.99
2017-04-12T13:37:38.783Z,99.99
2017-04-12T13:38:49.803Z,99.99
2017-04-12T13:40:01.034Z,99.99
2017-04-12T13:41:12.273Z,99.99
2017-04-12T13:42:23.302Z,99.99
2017-04-12T13:43:34.334Z,99.99
2017-04-12T13:44:45.408Z,99.99
2017-04-12T13:45:56.437Z,99.99
2017-04-12T13:47:07.463Z,99.99
2017-04-12T13:48:18.696Z,99.99
2017-04-12T13:49:29.717Z,99.99
2017-04-12T13:50:40.790Z,99.99
2017-04-12T13:51:51.810Z,99.99
2017-04-12T13:53:02.839Z,99.99
2017-04-12T13:54:14.069Z,99.99
2017-04-12T13:55:25.352Z,99.99
2017-04-12T13:56:36.429Z,99.99
2017-04-12T13:57:47.484Z,99.99
2017-04-12T13:58:58.511Z,99.99
2017-04-12T14:00:09.550Z,99.99
2017-04-12T14:01:21.039Z,99.99
2017-04-12T14:02:32.274Z,99.99
2017-04-12T14:03:43.755Z,99.99
2017-04-12T14:04:54.780Z,99.99
2017-04-12T14:06:06.005Z,99.99
2017-04-12T14:07:17.245Z,99.99
2017-04-12T14:08:28.273Z,99.99
2017-04-12T14:09:39.319Z,99.99
2017-04-12T14:10:50.348Z,99.99
2017-04-12T14:12:01.365Z,99.99
2017-04-12T14:13:12.382Z,99.99
2017-04-12T14:14:23.606Z,99.99
2017-04-12T14:15:34.840Z,99.99
2017-04-12T14:16:45.922Z,99.99
2017-04-12T14:17:56.948Z,99.99
2017-04-12T14:19:08.012Z,99.99
2017-04-12T14:20:19.036Z,99.99
2017-04-12T14:21:30.257Z,99.99
2017-04-12T14:22:41.287Z,99.99
2017-04-12T14:23:52.318Z,99.99
2017-04-12T14:25:03.344Z,99.99
2017-04-12T14:26:14.367Z,99.99
2017-04-12T14:27:25.443Z,99.99
2017-04-12T14:28:36.469Z,99.99
2017-04-12T14:29:47.491Z,99.99
2017-04-12T14:30:58.729Z,99.99
2017-04-12T14:32:09.762Z,99.99
2017-04-12T14:33:21.002Z,99.99
2017-04-12T14:34:32.030Z,99.99
2017-04-12T14:35:43.062Z,99.99
2017-04-12T14:36:54.289Z,99.99
2017-04-12T14:38:05.561Z,99.99
2017-04-12T14:39:16.595Z,99.99
2017-04-12T14:40:27.620Z,99.99
2017-04-12T14:41:38.853Z,99.99
2017-04-12T14:42:49.877Z,99.99
2017-04-12T14:44:00.903Z,99.99
2017-04-12T14:45:11.939Z,99.99
2017-04-12T14:46:22.964Z,99.99
2017-04-12T14:47:33.990Z,99.99
2017-04-12T14:48:45.019Z,99.99
2017-04-12T14:49:56.056Z,99.99
2017-04-12T14:51:07.098Z,99.99
2017-04-12T14:52:18.145Z,99.99
2017-04-12T14:53:29.382Z,99.99
2017-04-12T14:54:40.462Z,99.99
2017-04-12T14:55:51.489Z,99.99
2017-04-12T14:57:02.525Z,99.99
2017-04-12T14:58:13.553Z,99.99
2017-04-12T14:59:24.587Z,99.99
2017-04-12T15:00:35.877Z,99.99
2017-04-12T15:01:46.913Z,99.99
2017-04-12T15:02:58.157Z,99.99
2017-04-12T15:04:09.236Z,99.99
2017-04-12T15:05:20.471Z,99.99
2017-04-12T15:06:31.709Z,99.99
2017-04-12T15:07:42.933Z,99.99
2017-04-12T15:08:53.948Z,99.99
2017-04-12T15:10:04.973Z,99.99
2017-04-12T15:11:15.995Z,99.99
2017-04-12T15:12:27.024Z,99.99
2017-04-12T15:13:38.047Z,99.99
2017-04-12T15:14:49.125Z,99.99
2017-04-12T15:16:00.360Z,99.99
2017-04-12T15:17:11.405Z,99.99
2017-04-12T15:18:22.438Z,99.99
2017-04-12T15:19:33.466Z,99.99
2017-04-12T15:20:44.705Z,99.99
2017-04-12T15:21:55.763Z,99.99
2017-04-12T15:23:06.997Z,99.99
2017-04-12T15:24:18.225Z,99.99
2017-04-12T15:25:29.255Z,99.99
2017-04-12T15:26:40.493Z,99.99
2017-04-12T15:27:51.518Z,99.99
2017-04-12T15:29:02.549Z,99.99
2017-04-12T15:30:13.578Z,99.99
2017-04-12T15:31:24.617Z,99.99
2017-04-12T15:32:35.650Z,99.99
2017-04-12T15:33:46.683Z,99.99
2017-04-12T15:34:57.727Z,99.99
2017-04-12T15:36:09.006Z,99.99
2017-04-12T15:37:20.036Z,99.99
2017-04-12T15:38:31.073Z,99.99
2017-04-12T15:39:42.100Z,99.99
2017-04-12T15:40:53.120Z,99.99
2017-04-12T15:42:04.345Z,99.99
2017-04-12T15:43:15.393Z,99.99
2017-04-12T15:44:26.431Z,99.99
2017-04-12T15:45:37.462Z,99.99
2017-04-12T15:46:48.560Z,99.99
2017-04-12T15:47:59.586Z,99.99
2017-04-12T15:49:10.612Z,99.99
2017-04-12T15:50:21.843Z,99.99
2017-04-12T15:51:33.083Z,99.99
2017-04-12T15:52:44.319Z,99.99
2017-04-12T15:53:55.741Z,99.99
2017-04-12T15:55:06.973Z,99.99
2017-04-12T15:56:18.059Z,99.99
2017-04-12T15:57:29.125Z,99.99
2017-04-12T15:58:40.153Z,99.99
2017-04-12T15:59:51.184Z,99.99
2017-04-12T16:01:02.207Z,99.99
2017-04-12T16:02:13.286Z,99.99
2017-04-12T16:03:24.322Z,99.99
2017-04-12T16:04:35.561Z,99.99
2017-04-12T16:05:46.598Z,99.99
2017-04-12T16:06:57.827Z,99.99
2017-04-12T16:08:08.865Z,99.99
2017-04-12T16:09:19.893Z,99.99
2017-04-12T16:10:31.121Z,99.99
2017-04-12T16:11:42.142Z,99.99
2017-04-12T16:12:53.365Z,99.99
2017-04-12T16:14:04.856Z,99.99
2017-04-12T16:15:16.097Z,99.99
2017-04-12T16:16:27.129Z,99.99
2017-04-12T16:17:38.148Z,99.99
2017-04-12T16:18:49.391Z,99.99